Time;durP1;ratioP1;P1;durP2;ratioP2;P2;SDS_P1;SDS_P2;PMS_P1;PMS_P2;Temp;Humidity;BMP_temperature;BMP_pressure;BME280_temperature;BME280_humidity;BME280_pressure;Samples;Min_cycle;Max_cycle;Signal;HPM_P1;HPM_P2
2023/06/05 00:01:55;;;;;;;3.85;2.35;;;;;;;16.25;nan;5448.72;4994665;28;20636;-64
2023/06/05 00:04:21;;;;;;;7.07;2.67;;;;;;;16.38;nan;4477.78;4993059;28;20172;-63
2023/06/05 00:06:46;;;;;;;4.13;2.40;;;;;;;16.28;nan;4476.09;4994722;28;20219;-64
2023/06/05 00:09:13;;;;;;;4.03;2.40;;;;;;;16.00;nan;6092.34;4994424;28;20554;-63
2023/06/05 00:11:39;;;;;;;6.80;2.55;;;;;;;16.19;nan;6420.97;4994503;28;20220;-63
2023/06/05 00:14:05;;;;;;;6.97;2.20;;;;;;;15.98;nan;4794.56;4994410;28;20212;-62
2023/06/05 00:16:31;;;;;;;2.90;2.55;;;;;;;16.00;nan;5119.34;4994240;28;20235;-64
2023/06/05 00:18:57;;;;;;;2.80;2.22;;;;;;;16.18;nan;5447.28;4994050;28;20181;-63
2023/06/05 00:21:24;;;;;;;3.05;2.00;;;;;;;16.03;nan;5768.56;4994385;28;20180;-63
2023/06/05 00:23:50;;;;;;;7.38;2.28;;;;;;;16.08;nan;4796.50;4994096;28;20547;-64
2023/06/05 00:26:15;;;;;;;7.43;2.40;;;;;;;15.99;nan;4470.59;4993957;28;20173;-63
2023/06/05 00:28:41;;;;;;;4.03;2.20;;;;;;;15.98;nan;3821.97;4994334;28;20530;-65
2023/06/05 00:31:06;;;;;;;6.32;2.42;;;;;;;15.86;nan;2847.69;4989166;28;20577;-64
2023/06/05 00:33:32;;;;;;;3.60;2.20;;;;;;;15.93;nan;2524.63;4983905;28;20647;-62
2023/06/05 00:35:57;;;;;;;3.55;2.30;;;;;;;15.93;nan;3172.75;4992640;28;20639;-64
2023/06/05 00:38:23;;;;;;;6.28;2.17;;;;;;;15.74;nan;7059.81;4988676;28;20550;-64
2023/06/05 00:40:48;;;;;;;3.42;2.42;;;;;;;15.91;nan;6739.31;4987121;28;20180;-62
2023/06/05 00:43:14;;;;;;;3.03;2.22;;;;;;;15.50;nan;8675.97;4989887;28;20185;-64
2023/06/05 00:45:39;;;;;;;3.90;2.33;;;;;;;15.44;nan;9972.31;4982796;28;20187;-64
2023/06/05 00:48:06;;;;;;;3.63;2.30;;;;;;;15.48;nan;9973.31;4993935;28;20181;-64
2023/06/05 00:50:33;;;;;;;4.50;2.78;;;;;;;15.52;nan;9974.44;4993765;28;20268;-65
2023/06/05 00:53:01;;;;;;;6.85;2.10;;;;;;;15.56;nan;12573.09;4993126;28;20208;-63
2023/06/05 00:55:27;;;;;;;3.30;2.05;;;;;;;15.33;nan;19717.00;4993724;28;20274;-64
2023/06/05 00:57:54;;;;;;;3.83;2.33;;;;;;;15.73;nan;19083.22;4993490;28;20173;-63
2023/06/05 01:00:19;;;;;;;4.07;2.25;;;;;;;15.82;nan;22670.41;4993382;28;20229;-63
2023/06/05 01:02:45;;;;;;;5.60;2.60;;;;;;;15.66;nan;16802.41;4993099;28;20172;-63
2023/06/05 01:05:11;;;;;;;9.02;2.10;;;;;;;15.86;nan;22672.34;4993463;28;20612;-63
2023/06/05 01:07:40;;;;;;;2.90;2.20;;;;;;;15.68;nan;20057.81;4992888;28;20203;-64
2023/06/05 01:10:09;;;;;;;4.80;2.22;;;;;;;15.67;nan;18104.03;4992063;28;20257;-64
2023/06/05 01:12:55;;;;;;;4.10;2.20;;;;;;;15.54;nan;17773.53;4993219;28;20247;-63
2023/06/05 01:15:28;;;;;;;3.47;2.30;;;;;;;15.49;nan;14845.09;4995795;28;20208;-64
2023/06/05 01:17:58;;;;;;;6.00;1.95;;;;;;;15.60;nan;17125.31;4993080;28;20194;-63
2023/06/05 01:20:32;;;;;;;4.90;2.05;;;;;;;15.37;nan;16466.09;4993467;28;20247;-64
2023/06/05 01:22:57;;;;;;;2.65;2.30;;;;;;;15.31;nan;19390.50;4993091;28;20697;-63
2023/06/05 01:25:22;;;;;;;6.72;2.35;;;;;;;14.95;nan;17424.84;4993078;28;20311;-63
2023/06/05 01:27:57;;;;;;;4.13;2.05;;;;;;;15.52;nan;20701.81;4992759;28;20172;-64
2023/06/05 01:30:28;;;;;;;4.00;2.10;;;;;;;;;;4992613;28;20169;-63
2023/06/05 01:33:05;;;;;;;5.15;2.00;;;;;;;15.00;nan;17426.88;4992868;28;20200;-64
2023/06/05 01:35:33;;;;;;;2.85;2.08;;;;;;;15.17;nan;14183.97;4993039;28;20667;-64
2023/06/05 01:38:02;;;;;;;3.42;2.33;;;;;;;15.13;nan;15156.97;4992805;28;20179;-63
2023/06/05 01:40:30;;;;;;;3.30;2.17;;;;;;;15.04;nan;14179.78;4992817;28;20179;-64
2023/06/05 01:42:57;;;;;;;4.80;2.47;;;;;;;14.89;nan;15148.41;4992427;28;20175;-63
2023/06/05 01:45:23;;;;;;;8.40;2.90;;;;;;;14.78;nan;14819.75;5007747;28;20177;-63
2023/06/05 01:47:49;;;;;;;4.72;2.40;;;;;;;14.60;nan;15787.22;4992829;28;20634;-64
2023/06/05 01:50:16;;;;;;;3.20;2.28;;;;;;;15.18;nan;17433.91;4992059;28;20204;-62
2023/06/05 01:52:42;;;;;;;3.50;2.28;;;;;;;15.10;nan;18406.00;4992443;28;20227;-64
2023/06/05 01:55:14;;;;;;;5.07;2.33;;;;;;;15.35;nan;20694.25;4992948;28;20645;-63
2023/06/05 01:57:40;;;;;;;6.15;2.17;;;;;;;15.13;nan;17431.69;4992762;28;20173;-63
2023/06/05 02:00:08;;;;;;;6.15;2.40;;;;;;;15.30;nan;17113.41;4992589;28;20327;-64
2023/06/05 02:02:35;;;;;;;5.07;2.20;;;;;;;14.89;nan;17747.41;4992738;28;20196;-64
2023/06/05 02:05:01;;;;;;;6.22;1.90;;;;;;;15.09;nan;14181.38;4992766;28;20251;-62
2023/06/05 02:07:28;;;;;;;3.58;2.30;;;;;;;15.12;nan;13532.81;4992436;28;20199;-64
2023/06/05 02:09:53;;;;;;;5.47;2.50;;;;;;;15.09;nan;13856.47;4992207;28;20272;-63
2023/06/05 02:12:19;;;;;;;4.93;2.72;;;;;;;15.23;nan;19387.25;4992236;28;20730;-63
2023/06/05 02:14:44;;;;;;;3.30;2.25;;;;;;;15.22;nan;19386.81;4992049;28;20207;-63
2023/06/05 02:17:13;;;;;;;5.82;2.58;;;;;;;15.25;nan;21991.53;4992584;28;20187;-63
2023/06/05 02:19:41;;;;;;;7.13;2.47;;;;;;;15.49;nan;24609.72;4992106;28;20619;-63
2023/06/05 02:22:07;;;;;;;3.55;2.40;;;;;;;15.44;nan;25911.38;4991345;28;20169;-63
2023/06/05 02:24:33;;;;;;;3.58;2.40;;;;;;;15.26;nan;20364.69;4986259;28;20188;-63
2023/06/05 02:26:58;;;;;;;6.05;2.63;;;;;;;15.46;nan;19071.63;4992479;28;20655;-63
2023/06/05 02:29:24;;;;;;;5.68;2.72;;;;;;;15.22;nan;15485.19;4992243;28;20250;-62
2023/06/05 02:31:49;;;;;;;6.75;2.35;;;;;;;15.22;nan;13860.94;4991950;28;20300;-63
2023/06/05 02:34:16;;;;;;;4.32;2.53;;;;;;;15.03;nan;13205.31;4992367;28;20169;-63
2023/06/05 02:36:45;;;;;;;4.07;2.72;;;;;;;14.89;nan;13849.78;4992187;28;20215;-64
2023/06/05 02:39:11;;;;;;;5.28;2.40;;;;;;;15.06;nan;11907.94;4991715;28;20165;-64
2023/06/05 02:41:36;;;;;;;4.80;2.38;;;;;;;15.01;nan;11906.53;4992281;28;20268;-63
2023/06/05 02:44:02;;;;;;;4.97;2.22;;;;;;;15.15;nan;11586.34;4992441;28;20207;-63
2023/06/05 02:46:27;;;;;;;2.92;2.40;;;;;;;15.23;nan;12562.59;4992129;28;20548;-63
2023/06/05 02:48:53;;;;;;;5.82;2.35;;;;;;;15.06;nan;14505.06;4992549;28;20180;-62
2023/06/05 02:51:18;;;;;;;8.80;2.45;;;;;;;15.04;nan;12231.94;4991745;28;20181;-63
2023/06/05 02:53:43;;;;;;;4.55;2.20;;;;;;;15.08;nan;8665.13;4991819;28;20663;-66
2023/06/05 02:56:10;;;;;;;3.00;2.30;;;;;;;14.93;nan;6717.31;4991965;28;20172;-63
2023/06/05 02:58:35;;;;;;;3.63;2.13;;;;;;;14.02;nan;4757.06;4991976;28;20177;-63
2023/06/05 03:01:03;;;;;;;3.08;2.40;;;;;;;14.90;nan;7040.56;4991916;28;20227;-64
2023/06/05 03:03:31;;;;;;;8.43;2.75;;;;;;;14.97;nan;7690.19;4992806;28;20240;-64
2023/06/05 03:06:03;;;;;;;2.88;2.25;;;;;;;15.12;nan;12559.06;4995098;28;20559;-63
2023/06/05 03:08:33;;;;;;;4.60;2.78;;;;;;;15.10;nan;12882.84;4995119;28;20180;-64
2023/06/05 03:10:59;;;;;;;4.45;2.97;;;;;;;15.01;nan;12880.06;4995545;28;20180;-63
2023/06/05 03:13:25;;;;;;;4.35;2.50;;;;;;;15.17;nan;14183.97;4995059;28;20205;-63
2023/06/05 03:15:53;;;;;;;3.80;2.53;;;;;;;15.25;nan;15486.47;4994962;28;20180;-64
2023/06/05 03:18:20;;;;;;;4.07;2.20;;;;;;;15.38;nan;16141.41;4995240;28;20181;-65
2023/06/05 03:20:47;;;;;;;4.50;2.83;;;;;;;15.43;nan;16793.38;4994838;28;20176;-64
2023/06/05 03:23:13;;;;;;;4.93;2.58;;;;;;;15.35;nan;23950.72;4995072;28;20168;-63
2023/06/05 03:25:38;;;;;;;4.50;2.25;;;;;;;15.22;nan;23292.88;4988537;28;20651;-64
2023/06/05 03:28:04;;;;;;;2.60;2.15;;;;;;;15.42;nan;22977.06;4994822;28;20204;-64
2023/06/05 03:30:29;;;;;;;3.45;2.28;;;;;;;15.49;nan;27544.69;4994747;28;20173;-65
2023/06/05 03:32:55;;;;;;;4.72;2.10;;;;;;;15.53;nan;32444.38;4994333;28;20204;-63
2023/06/05 03:35:20;;;;;;;4.65;2.25;;;;;;;15.50;nan;38963.41;4993878;28;20180;-64
2023/06/05 03:37:46;;;;;;;7.18;2.40;;;;;;;15.53;nan;44653.38;4994339;28;20172;-64
2023/06/05 03:40:12;;;;;;;2.67;2.05;;;;;;;15.80;nan;48508.47;4995028;28;20173;-63
2023/06/05 03:42:37;;;;;;;2.55;1.90;;;;;;;15.95;nan;49042.41;4995222;28;20608;-64
2023/06/05 03:45:03;;;;;;;5.80;2.20;;;;;;;15.93;nan;50676.13;4994603;28;20204;-63
2023/06/05 03:47:28;;;;;;;4.28;1.88;;;;;;;16.44;nan;53480.94;4994887;28;20248;-65
2023/06/05 03:49:55;;;;;;;5.22;2.10;;;;;;;16.50;nan;55306.38;4994708;28;20173;-64
2023/06/05 03:52:24;;;;;;;3.45;1.92;;;;;;;17.10;nan;57238.94;4994613;28;20286;-64
2023/06/05 03:54:53;;;;;;;3.25;2.08;;;;;;;17.76;nan;59089.28;4994643;28;20589;-64
2023/06/05 03:57:20;;;;;;;6.22;3.35;;;;;;;18.01;nan;59972.38;4994659;28;20180;-62
2023/06/05 03:59:46;;;;;;;6.72;2.30;;;;;;;18.17;nan;60098.09;4994090;28;20772;-64
2023/06/05 04:02:12;;;;;;;4.68;2.10;;;;;;;18.04;nan;60290.41;4993419;28;20260;-64
2023/06/05 04:04:38;;;;;;;3.28;2.30;;;;;;;18.09;nan;60311.47;4994200;28;20180;-64
2023/06/05 04:07:05;;;;;;;4.43;2.50;;;;;;;17.94;nan;60315.47;4994584;28;20173;-64
2023/06/05 04:09:31;;;;;;;3.88;2.10;;;;;;;17.76;nan;60176.59;5009831;28;20654;-63
2023/06/05 04:11:57;;;;;;;3.35;2.15;;;;;;;18.14;nan;60298.41;4994333;28;20200;-64
2023/06/05 04:14:23;;;;;;;4.90;1.88;;;;;;;18.26;nan;60469.47;4988236;28;20185;-63
2023/06/05 04:16:48;;;;;;;2.03;1.50;;;;;;;18.64;nan;60592.03;4988843;28;20656;-64
2023/06/05 04:19:14;;;;;;;7.07;2.10;;;;;;;18.60;nan;60659.47;4993940;28;20212;-64
2023/06/05 04:21:41;;;;;;;2.63;1.42;;;;;;;18.77;nan;60660.38;4994218;28;20267;-65
2023/06/05 04:24:09;;;;;;;2.53;1.70;;;;;;;18.46;nan;60735.44;4993922;28;20181;-64
2023/06/05 04:26:38;;;;;;;6.47;1.90;;;;;;;18.46;nan;60740.59;4993991;28;20172;-66
2023/06/05 04:29:13;;;;;;;3.40;2.03;;;;;;;18.43;nan;60587.25;4993827;28;20196;-64
2023/06/05 04:31:41;;;;;;;3.03;1.77;;;;;;;18.60;nan;60892.84;4993097;28;20234;-65
2023/06/05 04:34:08;;;;;;;2.45;1.90;;;;;;;18.79;nan;60875.34;4993558;28;20161;-67
2023/06/05 04:36:34;;;;;;;4.30;2.03;;;;;;;19.51;nan;60869.53;4993405;28;20184;-65
2023/06/05 04:39:01;;;;;;;3.22;1.85;;;;;;;19.28;nan;61023.00;4993422;28;20189;-64
2023/06/05 04:41:29;;;;;;;5.07;1.88;;;;;;;19.68;nan;61113.50;4992975;28;20611;-66
2023/06/05 04:43:57;;;;;;;3.33;2.17;;;;;;;19.73;nan;61113.97;4992930;28;20172;-66
2023/06/05 04:46:23;;;;;;;3.70;2.10;;;;;;;20.05;nan;61310.19;4992869;28;20219;-63
2023/06/05 04:48:48;;;;;;;3.00;2.35;;;;;;;19.59;nan;60984.75;4993388;28;20208;-64
2023/06/05 04:51:14;;;;;;;5.47;2.45;;;;;;;19.27;nan;60998.56;4993042;28;20603;-64
2023/06/05 04:53:41;;;;;;;4.40;2.40;;;;;;;19.40;nan;60969.13;4993552;28;20161;-65
2023/06/05 04:56:07;;;;;;;7.13;3.10;;;;;;;19.48;nan;60977.56;4993590;28;20238;-64
2023/06/05 04:58:32;;;;;;;4.78;2.97;;;;;;;19.77;nan;60992.00;4992541;28;20213;-64
2023/06/05 05:01:04;;;;;;;5.47;2.90;;;;;;;20.08;nan;61065.16;4986996;28;20691;-64
2023/06/05 05:03:31;;;;;;;5.68;2.30;;;;;;;20.01;nan;61235.66;4992984;28;20611;-64
2023/06/05 05:05:56;;;;;;;3.33;2.60;;;;;;;20.03;nan;61233.28;4992825;28;20645;-64
2023/06/05 05:08:21;;;;;;;7.28;2.97;;;;;;;20.15;nan;61158.06;4992871;28;20179;-63
2023/06/05 05:10:47;;;;;;;4.57;2.83;;;;;;;19.90;nan;61164.19;4992523;28;20176;-64
2023/06/05 05:13:12;;;;;;;4.03;2.40;;;;;;;19.60;nan;61197.81;4991765;28;20219;-65
2023/06/05 05:15:37;;;;;;;4.20;2.15;;;;;;;19.35;nan;61134.50;4992921;28;20212;-64
2023/06/05 05:18:03;;;;;;;4.15;2.10;;;;;;;19.31;nan;61057.47;4991277;28;20239;-64
2023/06/05 05:20:29;;;;;;;3.78;2.42;;;;;;;19.13;nan;60959.56;4992849;28;20226;-65
2023/06/05 05:22:55;;;;;;;3.88;2.42;;;;;;;18.91;nan;60924.50;4992096;28;20556;-64
2023/06/05 05:25:21;;;;;;;3.97;2.58;;;;;;;18.57;nan;60777.69;4991254;28;20187;-63
2023/06/05 05:27:47;;;;;;;4.25;2.85;;;;;;;18.58;nan;60911.31;4992067;28;20568;-64
2023/06/05 05:30:13;;;;;;;7.60;2.97;;;;;;;18.44;nan;60745.56;4991253;28;20183;-65
2023/06/05 05:32:38;;;;;;;7.50;3.10;;;;;;;18.33;nan;60720.31;4992282;28;20230;-65
2023/06/05 05:35:04;;;;;;;5.13;2.85;;;;;;;18.27;nan;60760.72;4992309;28;20566;-65
2023/06/05 05:37:30;;;;;;;3.72;2.70;;;;;;;18.56;nan;60629.13;4990880;28;20571;-65
2023/06/05 05:39:55;;;;;;;6.38;2.88;;;;;;;18.77;nan;60730.78;4992392;28;20220;-65
2023/06/05 05:42:21;;;;;;;4.43;3.03;;;;;;;18.93;nan;60792.69;4991848;28;20656;-65
2023/06/05 05:44:46;;;;;;;8.73;2.90;;;;;;;19.04;nan;60742.31;4992344;28;20499;-64
2023/06/05 05:47:12;;;;;;;5.25;2.83;;;;;;;19.28;nan;60867.06;4992326;28;20631;-65
2023/06/05 05:49:37;;;;;;;4.32;3.10;;;;;;;19.31;nan;60953.84;4992324;28;20172;-68
2023/06/05 05:52:03;;;;;;;4.65;2.97;;;;;;;19.62;nan;60930.53;4992180;28;20227;-65
2023/06/05 05:54:29;;;;;;;6.20;2.88;;;;;;;19.83;nan;60936.53;4992255;28;20177;-65
2023/06/05 05:56:55;;;;;;;4.78;3.00;;;;;;;20.02;nan;61094.69;4992054;28;20181;-66
2023/06/05 05:59:21;;;;;;;6.47;3.05;;;;;;;20.18;nan;61036.91;4991928;28;20181;-65
2023/06/05 06:01:48;;;;;;;7.25;3.20;;;;;;;20.48;nan;61171.31;4991433;28;20300;-67
2023/06/05 06:04:16;;;;;;;4.13;2.67;;;;;;;20.63;nan;61195.97;4991560;28;20271;-66
2023/06/05 06:06:41;;;;;;;4.07;3.03;;;;;;;20.65;nan;61252.72;4990606;28;20261;-66
2023/06/05 06:09:09;;;;;;;4.00;2.67;;;;;;;20.90;nan;61277.75;4989683;28;20581;-67
2023/06/05 06:11:38;;;;;;;7.15;3.30;;;;;;;20.91;nan;61354.19;4990837;28;20200;-66
2023/06/05 06:14:03;;;;;;;4.28;2.67;;;;;;;21.33;nan;61372.44;4991939;28;20291;-64
2023/06/05 06:16:29;;;;;;;3.53;2.58;;;;;;;21.23;nan;61335.72;4991515;28;20260;-65
2023/06/05 06:18:55;;;;;;;5.07;2.83;;;;;;;21.39;nan;61511.78;4991938;28;20271;-66
2023/06/05 06:21:20;;;;;;;4.95;2.90;;;;;;;21.67;nan;61462.81;4992033;28;20619;-64
2023/06/05 06:23:47;;;;;;;4.68;3.10;;;;;;;22.27;nan;61638.84;4991915;28;20176;-66
2023/06/05 06:26:14;;;;;;;5.97;3.15;;;;;;;22.62;nan;61706.53;4991627;28;20238;-66
2023/06/05 06:28:40;;;;;;;5.15;2.95;;;;;;;22.93;nan;61895.44;4991917;28;20215;-65
2023/06/05 06:31:05;;;;;;;7.20;3.75;;;;;;;23.30;nan;62148.16;4991784;28;20231;-66
2023/06/05 06:33:31;;;;;;;9.93;3.22;;;;;;;23.71;nan;62204.78;4991578;28;20672;-66
2023/06/05 06:35:58;;;;;;;4.57;2.70;;;;;;;23.80;nan;62170.09;4991116;28;20227;-66
2023/06/05 06:38:29;;;;;;;7.13;3.88;;;;;;;23.81;nan;62030.31;4996110;28;20177;-66
2023/06/05 06:40:55;;;;;;;8.43;3.90;;;;;;;23.99;nan;62113.44;4996069;28;20161;-65
2023/06/05 06:43:20;;;;;;;6.45;4.03;;;;;;;23.89;nan;62073.34;4995062;28;20555;-65
2023/06/05 06:45:46;;;;;;;9.65;4.35;;;;;;;24.10;nan;62194.41;4995384;28;20590;-64
2023/06/05 06:48:12;;;;;;;7.20;4.65;;;;;;;24.24;nan;62152.38;4995992;28;20551;-65
2023/06/05 06:50:38;;;;;;;11.35;4.90;;;;;;;24.34;nan;62234.28;4994221;28;20165;-66
2023/06/05 06:53:03;;;;;;;9.00;4.70;;;;;;;24.13;nan;62179.56;4995438;28;20298;-66
2023/06/05 06:55:29;;;;;;;10.43;5.05;;;;;;;24.13;nan;62231.78;4995856;28;20173;-66
2023/06/05 06:57:54;;;;;;;11.00;4.90;;;;;;;24.46;nan;62318.50;4995780;28;20183;-66
2023/06/05 07:00:20;;;;;;;10.52;5.38;;;;;;;24.63;nan;62303.41;4995755;28;20587;-66
2023/06/05 07:02:46;;;;;;;10.93;5.40;;;;;;;24.65;nan;62222.59;4995879;28;20312;-66
2023/06/05 07:05:13;;;;;;;11.25;5.47;;;;;;;24.68;nan;62259.44;4995986;28;20227;-65
2023/06/05 07:07:38;;;;;;;10.52;5.57;;;;;;;24.79;nan;62224.94;4995566;28;20180;-65
2023/06/05 07:10:04;;;;;;;9.77;4.80;;;;;;;24.88;nan;62269.19;4995720;28;20667;-65
2023/06/05 07:12:30;;;;;;;8.82;5.40;;;;;;;25.11;nan;62268.72;4995559;28;20731;-64
2023/06/05 07:14:55;;;;;;;12.82;6.25;;;;;;;24.93;nan;62274.34;4995429;28;20180;-66
2023/06/05 07:17:21;;;;;;;12.75;5.88;;;;;;;24.94;nan;62421.91;4995689;28;20251;-65
2023/06/05 07:19:46;;;;;;;11.00;5.38;;;;;;;25.12;nan;62311.72;4993439;28;20293;-66
2023/06/05 07:22:12;;;;;;;13.02;5.35;;;;;;;24.94;nan;62281.28;4990854;28;20196;-65
2023/06/05 07:24:38;;;;;;;12.75;6.53;;;;;;;25.16;nan;62279.66;4995278;28;20646;-66
2023/06/05 07:27:04;;;;;;;13.75;5.57;;;;;;;24.95;nan;62334.16;4995272;28;20176;-65
2023/06/05 07:29:30;;;;;;;12.98;5.38;;;;;;;25.01;nan;62404.34;4995359;28;20380;-65
2023/06/05 07:31:57;;;;;;;13.73;5.20;;;;;;;25.21;nan;62266.47;4995289;28;20200;-64
2023/06/05 07:34:24;;;;;;;10.43;5.45;;;;;;;24.39;nan;62179.91;4995317;28;20172;-67
2023/06/05 07:36:51;;;;;;;12.75;5.60;;;;;;;25.41;nan;62310.81;4995156;28;20212;-65
2023/06/05 07:39:17;;;;;;;13.25;5.85;;;;;;;25.62;nan;62297.00;4994988;28;20177;-65
2023/06/05 07:41:43;;;;;;;12.15;5.53;;;;;;;25.66;nan;62364.97;4994886;28;20181;-65
2023/06/05 07:44:10;;;;;;;9.35;5.00;;;;;;;25.56;nan;62610.06;4995240;28;20176;-65
2023/06/05 07:46:36;;;;;;;14.15;6.00;;;;;;;25.61;nan;62361.31;4995036;28;20609;-65
2023/06/05 07:49:01;;;;;;;14.75;5.38;;;;;;;25.93;nan;62393.19;4994379;28;20537;-67
2023/06/05 07:51:27;;;;;;;12.73;5.78;;;;;;;26.28;nan;62463.47;4994849;28;20204;-66
2023/06/05 07:53:52;;;;;;;9.18;5.05;;;;;;;26.19;nan;62417.06;4994868;28;20256;-64
2023/06/05 07:56:18;;;;;;;10.30;5.03;;;;;;;26.10;nan;62526.72;4994654;28;20161;-65
2023/06/05 07:58:43;;;;;;;11.95;4.95;;;;;;;26.46;nan;62535.91;4994954;28;20175;-66
2023/06/05 08:01:10;;;;;;;10.77;5.45;;;;;;;26.26;nan;62443.44;4994660;28;20225;-64
2023/06/05 08:03:35;;;;;;;10.43;5.72;;;;;;;26.74;nan;62613.09;4994861;28;20528;-65
2023/06/05 08:06:02;;;;;;;11.57;5.55;;;;;;;26.65;nan;62497.34;4994567;28;20667;-66
2023/06/05 08:08:27;;;;;;;10.68;5.22;;;;;;;26.63;nan;62506.13;4993561;28;20596;-65
2023/06/05 08:10:52;;;;;;;11.27;5.07;;;;;;;;;;4994288;28;20198;-65
2023/06/05 08:13:18;;;;;;;8.60;4.90;;;;;;;27.35;nan;62624.13;4994592;28;20212;-67
2023/06/05 08:15:43;;;;;;;10.43;5.53;;;;;;;27.28;nan;62550.50;4994461;28;20263;-66
2023/06/05 08:18:08;;;;;;;8.63;4.72;;;;;;;27.09;nan;62644.78;4994397;28;20242;-66
2023/06/05 08:20:34;;;;;;;9.75;5.35;;;;;;;26.86;nan;62568.03;4994404;28;20176;-66
2023/06/05 08:23:01;;;;;;;8.38;5.15;;;;;;;26.40;nan;62481.88;4994462;28;20172;-66
2023/06/05 08:25:27;;;;;;;10.93;5.60;;;;;;;24.95;nan;62224.34;4993944;28;20662;-66
2023/06/05 08:27:53;;;;;;;10.45;5.65;;;;;;;24.85;nan;62293.94;4994214;28;20265;-65
2023/06/05 08:30:18;;;;;;;10.20;5.80;;;;;;;24.69;nan;62320.13;4994348;28;20255;-65
2023/06/05 08:32:44;;;;;;;12.10;6.07;;;;;;;24.78;nan;62275.50;4993946;28;20211;-64
2023/06/05 08:35:10;;;;;;;11.88;5.85;;;;;;;24.40;nan;62181.06;4993963;28;20644;-65
2023/06/05 08:37:36;;;;;;;11.23;5.95;;;;;;;23.89;nan;62073.34;4993850;28;20173;-65
2023/06/05 08:40:06;;;;;;;11.82;6.05;;;;;;;23.55;nan;62027.94;4993543;28;20561;-64
2023/06/05 08:42:31;;;;;;;10.50;5.60;;;;;;;23.61;nan;62083.78;4993882;28;20180;-66
2023/06/05 08:44:57;;;;;;;9.00;5.50;;;;;;;22.79;nan;61843.66;4993870;28;20648;-66
2023/06/05 08:47:26;;;;;;;11.63;6.18;;;;;;;22.96;nan;61960.84;4993946;28;20173;-64
2023/06/05 08:49:53;;;;;;;11.73;6.35;;;;;;;23.10;nan;62102.44;4994129;28;20169;-64
2023/06/05 08:52:22;;;;;;;10.70;5.80;;;;;;;23.34;nan;62069.25;4993753;28;20212;-66
2023/06/05 08:54:47;;;;;;;11.45;5.80;;;;;;;22.77;nan;61937.19;4993837;28;20172;-65
2023/06/05 08:57:13;;;;;;;11.57;6.20;;;;;;;22.69;nan;61922.88;4994049;28;20180;-65
2023/06/05 08:59:40;;;;;;;12.13;6.40;;;;;;;22.62;nan;62063.38;5008960;28;20172;-66
2023/06/05 09:02:05;;;;;;;11.93;6.07;;;;;;;23.13;nan;62029.69;5008770;28;20223;-64
2023/06/05 09:04:31;;;;;;;10.70;6.22;;;;;;;22.82;nan;61938.25;4993685;28;20169;-66
2023/06/05 09:06:58;;;;;;;10.50;6.03;;;;;;;22.82;nan;62084.16;4993248;28;20708;-65
2023/06/05 09:09:25;;;;;;;12.80;6.03;;;;;;;23.23;nan;62095.81;4993423;28;20173;-64
2023/06/05 09:12:09;;;;;;;9.65;5.43;;;;;;;23.59;nan;62086.72;4993538;28;20283;-66
2023/06/05 09:14:35;;;;;;;9.50;5.00;;;;;;;23.78;nan;62116.19;4993638;28;20222;-65
2023/06/05 09:17:03;;;;;;;8.30;5.07;;;;;;;23.99;nan;62090.50;4992176;28;20549;-65
2023/06/05 09:19:43;;;;;;;8.07;4.85;;;;;;;24.44;nan;62192.88;4993217;28;20191;-65
2023/06/05 09:22:10;;;;;;;10.52;5.40;;;;;;;23.62;nan;61978.53;4993566;28;20172;-65
2023/06/05 09:24:37;;;;;;;8.82;5.00;;;;;;;23.73;nan;62227.91;4993224;28;20173;-65
2023/06/05 09:27:08;;;;;;;9.80;4.30;;;;;;;23.73;nan;62178.91;4993129;28;20196;-64
2023/06/05 09:29:38;;;;;;;7.25;4.63;;;;;;;23.92;nan;62196.81;4993188;28;20648;-66
2023/06/05 09:32:20;;;;;;;9.10;5.05;;;;;;;23.13;nan;61993.75;4993122;28;20197;-64
2023/06/05 09:34:59;;;;;;;7.72;4.43;;;;;;;23.49;nan;62015.91;4993036;28;20177;-66
2023/06/05 09:37:33;;;;;;;7.80;4.45;;;;;;;23.62;nan;62027.53;4992977;28;20243;-66
2023/06/05 09:39:59;;;;;;;6.88;4.30;;;;;;;24.14;nan;62227.69;4992946;28;20180;-67
2023/06/05 09:42:34;;;;;;;6.80;4.40;;;;;;;24.54;nan;62345.97;4992901;28;20571;-65
2023/06/05 09:45:01;;;;;;;8.77;5.15;;;;;;;24.57;nan;62260.53;4992864;28;20271;-66
2023/06/05 09:47:27;;;;;;;6.35;3.70;;;;;;;23.71;nan;62210.56;4992776;28;20267;-65
2023/06/05 09:49:52;;;;;;;6.35;3.83;;;;;;;23.30;nan;62148.16;4991884;28;20272;-65
2023/06/05 09:52:19;;;;;;;6.20;3.53;;;;;;;23.37;nan;62041.34;4992121;28;20251;-64
2023/06/05 09:54:46;;;;;;;5.25;3.70;;;;;;;23.37;nan;62057.00;4992279;28;20185;-66
2023/06/05 09:57:14;;;;;;;6.05;3.65;;;;;;;23.75;nan;62157.72;4991975;28;20180;-64
2023/06/05 09:59:45;;;;;;;7.07;3.80;;;;;;;23.87;nan;62264.78;4992359;28;20184;-64
2023/06/05 10:02:15;;;;;;;4.80;3.20;;;;;;;23.98;nan;62175.53;4992687;28;20187;-64
2023/06/05 10:04:46;;;;;;;7.22;3.40;;;;;;;23.61;nan;62224.66;4992127;28;20164;-65
2023/06/05 10:07:12;;;;;;;4.88;3.35;;;;;;;24.20;nan;62161.44;4992354;28;20258;-66
2023/06/05 10:09:39;;;;;;;8.75;4.38;;;;;;;24.25;nan;62182.25;4991669;28;20175;-65
2023/06/05 10:12:07;;;;;;;6.00;3.67;;;;;;;24.08;nan;62233.91;4991863;28;20228;-64
2023/06/05 10:14:34;;;;;;;5.93;3.65;;;;;;;24.52;nan;62254.25;4992120;28;20177;-65
2023/06/05 10:17:01;;;;;;;5.70;3.58;;;;;;;24.90;nan;62422.56;4992088;28;20263;-65
2023/06/05 10:19:27;;;;;;;6.03;3.60;;;;;;;24.45;nan;62194.59;4991986;28;20173;-65
2023/06/05 10:21:53;;;;;;;5.47;3.65;;;;;;;24.56;nan;62217.56;4990772;28;20230;-66
2023/06/05 10:24:23;;;;;;;6.43;3.78;;;;;;;23.89;nan;62319.28;4991928;28;20251;-64
2023/06/05 10:27:03;;;;;;;4.82;3.35;;;;;;;24.62;nan;62216.00;4992488;28;20633;-65
2023/06/05 10:29:48;;;;;;;4.97;3.10;;;;;;;24.86;nan;62306.16;4991962;28;20172;-65
2023/06/05 10:32:33;;;;;;;4.70;3.67;;;;;;;24.34;nan;62161.16;4992478;28;20270;-66
2023/06/05 10:35:01;;;;;;;4.88;3.40;;;;;;;24.72;nan;62313.09;4992867;28;20192;-65
2023/06/05 10:37:38;;;;;;;6.50;3.55;;;;;;;24.72;nan;62250.38;4992009;28;20222;-65
2023/06/05 10:40:05;;;;;;;6.22;3.67;;;;;;;24.24;nan;62358.13;4992214;28;20187;-65
2023/06/05 10:42:31;;;;;;;4.82;3.30;;;;;;;24.35;nan;62159.13;4991725;28;20209;-65
2023/06/05 10:44:57;;;;;;;6.22;3.90;;;;;;;24.82;nan;62248.72;4991643;28;20215;-65
2023/06/05 10:47:49;;;;;;;5.30;3.53;;;;;;;25.22;nan;62375.44;4991923;28;20176;-64
2023/06/05 10:50:21;;;;;;;5.15;3.08;;;;;;;25.70;nan;62435.00;4992405;28;20257;-65
2023/06/05 10:52:48;;;;;;;5.68;3.63;;;;;;;25.48;nan;62449.63;4992179;28;20196;-65
2023/06/05 10:55:15;;;;;;;6.80;3.45;;;;;;;25.77;nan;62346.09;4991986;28;20246;-65
2023/06/05 10:58:02;;;;;;;6.05;3.20;;;;;;;25.61;nan;62409.00;4991617;28;20177;-66
2023/06/05 11:00:29;;;;;;;6.07;3.03;;;;;;;24.85;nan;62237.00;4992062;28;20220;-65
2023/06/05 11:02:54;;;;;;;5.22;3.60;;;;;;;25.09;nan;62261.22;4992383;28;20238;-64
2023/06/05 11:05:20;;;;;;;3.72;2.88;;;;;;;25.08;nan;62417.56;4992049;28;20640;-65
2023/06/05 11:07:46;;;;;;;4.90;2.95;;;;;;;25.31;nan;62327.59;4990835;28;20179;-65
2023/06/05 11:10:21;;;;;;;5.25;3.35;;;;;;;25.13;nan;62354.72;4992006;28;20185;-65
2023/06/05 11:12:47;;;;;;;4.47;2.85;;;;;;;25.36;nan;62365.28;4992626;28;20239;-65
2023/06/05 11:15:14;;;;;;;4.95;3.17;;;;;;;25.44;nan;62454.97;4992491;28;20208;-65
2023/06/05 11:17:44;;;;;;;4.95;2.97;;;;;;;25.50;nan;62464.44;4992030;28;20231;-65
2023/06/05 11:20:25;;;;;;;6.82;2.65;;;;;;;25.30;nan;62397.09;4991781;28;20685;-64
2023/06/05 11:22:53;;;;;;;3.50;2.60;;;;;;;25.01;nan;62348.84;4991925;28;20534;-64
2023/06/05 11:25:21;;;;;;;5.38;3.13;;;;;;;25.21;nan;62331.88;4995558;28;20184;-65
2023/06/05 11:27:48;;;;;;;4.57;2.80;;;;;;;25.34;nan;62315.34;4994172;28;20187;-65
2023/06/05 11:30:15;;;;;;;5.65;3.08;;;;;;;25.26;nan;62243.41;4995175;28;20636;-65
2023/06/05 11:32:40;;;;;;;4.95;3.15;;;;;;;25.70;nan;62366.34;4995287;28;20256;-64
2023/06/05 11:35:08;;;;;;;4.40;2.58;;;;;;;25.66;nan;62666.03;4995291;28;20631;-61
2023/06/05 11:37:34;;;;;;;4.13;2.80;;;;;;;25.86;nan;62390.41;4995841;28;20188;-60
2023/06/05 11:40:09;;;;;;;4.65;3.10;;;;;;;26.28;nan;62395.91;4994994;28;20251;-60
2023/06/05 11:42:35;;;;;;;3.95;2.97;;;;;;;26.06;nan;62438.91;4995317;28;20215;-60
2023/06/05 11:45:02;;;;;;;4.57;2.85;;;;;;;25.36;nan;62331.25;4994436;28;20615;-60
2023/06/05 11:47:29;;;;;;;4.72;3.15;;;;;;;25.42;nan;62366.91;4994498;28;20283;-59
2023/06/05 11:50:16;;;;;;;4.28;2.80;;;;;;;25.43;nan;62409.91;4993957;28;20271;-61
2023/06/05 11:52:42;;;;;;;5.22;2.90;;;;;;;25.34;nan;62284.50;4993685;28;20702;-60